sensor_id;sensor_type;location;lat;lon;timestamp;temperature;humidity
18177;DHT22;9213;50.858;3.964;2022-10-16T00:00:39;17.10;58.80
18177;DHT22;9213;50.858;3.964;2022-10-16T00:03:07;17.10;58.80
18177;DHT22;9213;50.858;3.964;2022-10-16T00:05:39;17.10;58.80
18177;DHT22;9213;50.858;3.964;2022-10-16T00:08:06;17.10;58.80
18177;DHT22;9213;50.858;3.964;2022-10-16T00:10:33;17.10;58.70
18177;DHT22;9213;50.858;3.964;2022-10-16T00:13:00;17.10;58.80
18177;DHT22;9213;50.858;3.964;2022-10-16T00:15:27;17.10;58.90
18177;DHT22;9213;50.858;3.964;2022-10-16T00:17:55;17.10;59.00
18177;DHT22;9213;50.858;3.964;2022-10-16T00:20:22;17.00;59.10
18177;DHT22;9213;50.858;3.964;2022-10-16T00:22:49;17.00;59.10
18177;DHT22;9213;50.858;3.964;2022-10-16T00:25:16;17.00;59.90
18177;DHT22;9213;50.858;3.964;2022-10-16T00:27:43;17.00;59.30
18177;DHT22;9213;50.858;3.964;2022-10-16T00:30:10;17.00;59.30
18177;DHT22;9213;50.858;3.964;2022-10-16T00:32:37;16.90;59.40
18177;DHT22;9213;50.858;3.964;2022-10-16T00:35:06;17.00;59.40
18177;DHT22;9213;50.858;3.964;2022-10-16T00:37:32;16.90;59.50
18177;DHT22;9213;50.858;3.964;2022-10-16T00:39:59;16.90;59.50
18177;DHT22;9213;50.858;3.964;2022-10-16T00:42:26;16.90;59.60
18177;DHT22;9213;50.858;3.964;2022-10-16T00:44:55;16.90;59.70
18177;DHT22;9213;50.858;3.964;2022-10-16T00:47:25;16.90;59.80
18177;DHT22;9213;50.858;3.964;2022-10-16T00:49:57;16.90;59.90
18177;DHT22;9213;50.858;3.964;2022-10-16T00:52:26;16.90;59.80
18177;DHT22;9213;50.858;3.964;2022-10-16T00:54:54;16.90;59.80
18177;DHT22;9213;50.858;3.964;2022-10-16T00:57:21;16.80;59.70
18177;DHT22;9213;50.858;3.964;2022-10-16T00:59:49;16.80;59.60
18177;DHT22;9213;50.858;3.964;2022-10-16T01:02:16;16.80;59.60
18177;DHT22;9213;50.858;3.964;2022-10-16T01:04:46;16.80;59.50
18177;DHT22;9213;50.858;3.964;2022-10-16T01:07:21;16.80;59.60
18177;DHT22;9213;50.858;3.964;2022-10-16T01:10:03;16.80;59.60
18177;DHT22;9213;50.858;3.964;2022-10-16T01:12:38;16.80;59.70
18177;DHT22;9213;50.858;3.964;2022-10-16T01:15:12;16.70;59.70
18177;DHT22;9213;50.858;3.964;2022-10-16T01:17:44;16.70;59.80
18177;DHT22;9213;50.858;3.964;2022-10-16T01:20:20;16.70;59.80
18177;DHT22;9213;50.858;3.964;2022-10-16T01:23:06;16.70;59.90
18177;DHT22;9213;50.858;3.964;2022-10-16T01:26:11;16.70;59.90
18177;DHT22;9213;50.858;3.964;2022-10-16T01:28:46;16.70;59.80
18177;DHT22;9213;50.858;3.964;2022-10-16T01:31:17;16.60;59.80
18177;DHT22;9213;50.858;3.964;2022-10-16T01:33:47;16.60;60.00
18177;DHT22;9213;50.858;3.964;2022-10-16T01:36:17;16.50;60.10
18177;DHT22;9213;50.858;3.964;2022-10-16T01:38:49;16.50;60.10
18177;DHT22;9213;50.858;3.964;2022-10-16T01:41:22;16.50;60.20
18177;DHT22;9213;50.858;3.964;2022-10-16T01:43:56;16.50;60.30
18177;DHT22;9213;50.858;3.964;2022-10-16T01:46:26;16.50;60.30
18177;DHT22;9213;50.858;3.964;2022-10-16T01:48:54;16.50;60.30
18177;DHT22;9213;50.858;3.964;2022-10-16T01:51:22;16.50;60.30
18177;DHT22;9213;50.858;3.964;2022-10-16T01:53:53;16.50;60.40
18177;DHT22;9213;50.858;3.964;2022-10-16T01:56:21;16.50;60.30
18177;DHT22;9213;50.858;3.964;2022-10-16T01:58:53;16.50;60.30
18177;DHT22;9213;50.858;3.964;2022-10-16T02:01:22;16.50;60.40
18177;DHT22;9213;50.858;3.964;2022-10-16T02:03:52;16.50;60.40
18177;DHT22;9213;50.858;3.964;2022-10-16T02:06:20;16.40;60.30
18177;DHT22;9213;50.858;3.964;2022-10-16T02:08:48;16.40;60.20
18177;DHT22;9213;50.858;3.964;2022-10-16T02:11:15;16.50;60.40
18177;DHT22;9213;50.858;3.964;2022-10-16T02:13:45;16.40;60.30
18177;DHT22;9213;50.858;3.964;2022-10-16T02:16:14;16.40;60.40
18177;DHT22;9213;50.858;3.964;2022-10-16T02:18:42;16.40;60.50
18177;DHT22;9213;50.858;3.964;2022-10-16T02:21:14;16.40;60.60
18177;DHT22;9213;50.858;3.964;2022-10-16T02:23:49;16.40;61.50
18177;DHT22;9213;50.858;3.964;2022-10-16T02:26:24;16.40;60.80
18177;DHT22;9213;50.858;3.964;2022-10-16T02:28:59;16.40;60.70
18177;DHT22;9213;50.858;3.964;2022-10-16T02:31:32;16.40;60.80
18177;DHT22;9213;50.858;3.964;2022-10-16T02:34:02;16.30;60.80
18177;DHT22;9213;50.858;3.964;2022-10-16T02:36:31;16.30;60.80
18177;DHT22;9213;50.858;3.964;2022-10-16T02:38:59;16.30;60.90
18177;DHT22;9213;50.858;3.964;2022-10-16T02:41:26;16.30;61.00
18177;DHT22;9213;50.858;3.964;2022-10-16T02:43:54;16.30;61.20
18177;DHT22;9213;50.858;3.964;2022-10-16T02:46:21;16.30;61.20
18177;DHT22;9213;50.858;3.964;2022-10-16T02:48:50;16.30;61.40
18177;DHT22;9213;50.858;3.964;2022-10-16T02:51:16;16.30;61.40
18177;DHT22;9213;50.858;3.964;2022-10-16T02:53:44;16.30;61.50
18177;DHT22;9213;50.858;3.964;2022-10-16T02:56:11;16.30;61.60
18177;DHT22;9213;50.858;3.964;2022-10-16T02:58:37;16.40;62.40
18177;DHT22;9213;50.858;3.964;2022-10-16T03:01:04;16.40;61.70
18177;DHT22;9213;50.858;3.964;2022-10-16T03:03:31;16.40;61.70
18177;DHT22;9213;50.858;3.964;2022-10-16T03:05:59;16.40;61.70
18177;DHT22;9213;50.858;3.964;2022-10-16T03:08:26;16.40;61.80
18177;DHT22;9213;50.858;3.964;2022-10-16T03:10:53;16.40;61.80
18177;DHT22;9213;50.858;3.964;2022-10-16T03:13:20;16.40;62.60
18177;DHT22;9213;50.858;3.964;2022-10-16T03:15:47;16.40;61.80
18177;DHT22;9213;50.858;3.964;2022-10-16T03:18:14;16.40;61.90
18177;DHT22;9213;50.858;3.964;2022-10-16T03:20:42;16.40;62.00
18177;DHT22;9213;50.858;3.964;2022-10-16T03:23:11;16.50;62.20
18177;DHT22;9213;50.858;3.964;2022-10-16T03:25:37;16.40;62.10
18177;DHT22;9213;50.858;3.964;2022-10-16T03:28:04;16.50;62.20
18177;DHT22;9213;50.858;3.964;2022-10-16T03:30:32;16.50;62.30
18177;DHT22;9213;50.858;3.964;2022-10-16T03:32:58;16.50;62.40
18177;DHT22;9213;50.858;3.964;2022-10-16T03:35:25;16.50;62.50
18177;DHT22;9213;50.858;3.964;2022-10-16T03:37:52;16.50;62.50
18177;DHT22;9213;50.858;3.964;2022-10-16T03:40:20;16.50;62.40
18177;DHT22;9213;50.858;3.964;2022-10-16T03:42:47;16.50;62.40
18177;DHT22;9213;50.858;3.964;2022-10-16T03:45:14;16.50;62.30
18177;DHT22;9213;50.858;3.964;2022-10-16T03:47:41;16.50;62.30
18177;DHT22;9213;50.858;3.964;2022-10-16T03:50:08;16.50;62.30
18177;DHT22;9213;50.858;3.964;2022-10-16T03:52:35;16.50;62.40
18177;DHT22;9213;50.858;3.964;2022-10-16T03:55:02;16.50;62.50
18177;DHT22;9213;50.858;3.964;2022-10-16T03:57:30;16.50;62.50
18177;DHT22;9213;50.858;3.964;2022-10-16T03:59:57;16.50;62.50
18177;DHT22;9213;50.858;3.964;2022-10-16T04:02:24;16.50;62.50
18177;DHT22;9213;50.858;3.964;2022-10-16T04:04:51;16.50;62.60
18177;DHT22;9213;50.858;3.964;2022-10-16T04:07:18;16.50;63.40
18177;DHT22;9213;50.858;3.964;2022-10-16T04:09:44;16.50;62.60
18177;DHT22;9213;50.858;3.964;2022-10-16T04:12:11;16.50;63.40
18177;DHT22;9213;50.858;3.964;2022-10-16T04:14:40;16.50;62.60
18177;DHT22;9213;50.858;3.964;2022-10-16T04:17:06;16.50;62.60
18177;DHT22;9213;50.858;3.964;2022-10-16T04:19:33;16.40;62.40
18177;DHT22;9213;50.858;3.964;2022-10-16T04:22:00;16.50;62.50
18177;DHT22;9213;50.858;3.964;2022-10-16T04:24:27;16.40;62.40
18177;DHT22;9213;50.858;3.964;2022-10-16T04:26:54;16.40;62.50
18177;DHT22;9213;50.858;3.964;2022-10-16T04:29:21;16.40;62.60
18177;DHT22;9213;50.858;3.964;2022-10-16T04:31:49;16.40;62.60
18177;DHT22;9213;50.858;3.964;2022-10-16T04:34:16;16.40;62.60
18177;DHT22;9213;50.858;3.964;2022-10-16T04:36:42;16.40;62.70
18177;DHT22;9213;50.858;3.964;2022-10-16T04:39:09;16.30;62.70
18177;DHT22;9213;50.858;3.964;2022-10-16T04:41:36;16.30;62.90
18177;DHT22;9213;50.858;3.964;2022-10-16T04:44:03;16.30;63.00
18177;DHT22;9213;50.858;3.964;2022-10-16T04:46:30;16.30;63.10
18177;DHT22;9213;50.858;3.964;2022-10-16T04:48:58;16.30;63.10
18177;DHT22;9213;50.858;3.964;2022-10-16T04:51:25;16.30;63.10
18177;DHT22;9213;50.858;3.964;2022-10-16T04:53:53;16.30;63.10
18177;DHT22;9213;50.858;3.964;2022-10-16T04:56:21;16.30;63.00
18177;DHT22;9213;50.858;3.964;2022-10-16T04:58:48;16.30;63.10
18177;DHT22;9213;50.858;3.964;2022-10-16T05:01:15;16.20;63.10
18177;DHT22;9213;50.858;3.964;2022-10-16T05:03:42;16.20;63.30
18177;DHT22;9213;50.858;3.964;2022-10-16T05:06:10;16.20;63.30
18177;DHT22;9213;50.858;3.964;2022-10-16T05:08:37;16.20;63.30
18177;DHT22;9213;50.858;3.964;2022-10-16T05:11:04;16.20;63.20
18177;DHT22;9213;50.858;3.964;2022-10-16T05:13:31;16.20;63.20
18177;DHT22;9213;50.858;3.964;2022-10-16T05:15:57;16.20;63.20
18177;DHT22;9213;50.858;3.964;2022-10-16T05:18:24;16.20;63.10
18177;DHT22;9213;50.858;3.964;2022-10-16T05:20:51;16.20;63.10
18177;DHT22;9213;50.858;3.964;2022-10-16T05:23:19;16.10;63.10
18177;DHT22;9213;50.858;3.964;2022-10-16T05:25:52;16.10;63.10
18177;DHT22;9213;50.858;3.964;2022-10-16T05:28:20;16.10;63.10
18177;DHT22;9213;50.858;3.964;2022-10-16T05:30:47;16.10;63.00
18177;DHT22;9213;50.858;3.964;2022-10-16T05:33:13;16.00;63.00
18177;DHT22;9213;50.858;3.964;2022-10-16T05:35:40;16.00;62.90
18177;DHT22;9213;50.858;3.964;2022-10-16T05:38:07;16.00;63.00
18177;DHT22;9213;50.858;3.964;2022-10-16T05:40:35;16.00;63.10
18177;DHT22;9213;50.858;3.964;2022-10-16T05:43:02;16.00;63.20
18177;DHT22;9213;50.858;3.964;2022-10-16T05:45:29;16.00;63.30
18177;DHT22;9213;50.858;3.964;2022-10-16T05:47:56;16.00;63.40
18177;DHT22;9213;50.858;3.964;2022-10-16T05:50:23;16.00;63.40
18177;DHT22;9213;50.858;3.964;2022-10-16T05:52:50;16.00;63.60
18177;DHT22;9213;50.858;3.964;2022-10-16T05:55:16;16.00;63.80
18177;DHT22;9213;50.858;3.964;2022-10-16T05:57:44;16.10;64.80
18177;DHT22;9213;50.858;3.964;2022-10-16T06:00:12;16.10;64.20
18177;DHT22;9213;50.858;3.964;2022-10-16T06:02:39;16.20;64.30
18177;DHT22;9213;50.858;3.964;2022-10-16T06:05:06;16.20;64.30
18177;DHT22;9213;50.858;3.964;2022-10-16T06:07:34;16.20;64.40
18177;DHT22;9213;50.858;3.964;2022-10-16T06:10:01;16.30;64.50
18177;DHT22;9213;50.858;3.964;2022-10-16T06:12:29;16.40;64.40
18177;DHT22;9213;50.858;3.964;2022-10-16T06:14:57;16.40;65.10
18177;DHT22;9213;50.858;3.964;2022-10-16T06:17:24;16.40;64.30
18177;DHT22;9213;50.858;3.964;2022-10-16T06:19:51;16.50;65.10
18177;DHT22;9213;50.858;3.964;2022-10-16T06:22:18;16.50;64.30
18177;DHT22;9213;50.858;3.964;2022-10-16T06:24:45;16.50;64.30
18177;DHT22;9213;50.858;3.964;2022-10-16T06:27:13;16.50;64.30
18177;DHT22;9213;50.858;3.964;2022-10-16T06:29:39;16.60;64.20
18177;DHT22;9213;50.858;3.964;2022-10-16T06:32:09;16.60;64.20
18177;DHT22;9213;50.858;3.964;2022-10-16T06:34:36;16.60;64.10
18177;DHT22;9213;50.858;3.964;2022-10-16T06:37:05;16.60;63.90
18177;DHT22;9213;50.858;3.964;2022-10-16T06:39:32;16.70;63.90
18177;DHT22;9213;50.858;3.964;2022-10-16T06:41:59;16.70;63.90
18177;DHT22;9213;50.858;3.964;2022-10-16T06:44:25;16.60;63.70
18177;DHT22;9213;50.858;3.964;2022-10-16T06:46:52;16.70;63.80
18177;DHT22;9213;50.858;3.964;2022-10-16T06:49:20;16.60;63.60
18177;DHT22;9213;50.858;3.964;2022-10-16T06:51:48;16.70;63.60
18177;DHT22;9213;50.858;3.964;2022-10-16T06:54:15;16.60;63.50
18177;DHT22;9213;50.858;3.964;2022-10-16T06:56:43;16.60;63.40
18177;DHT22;9213;50.858;3.964;2022-10-16T06:59:10;16.60;63.40
18177;DHT22;9213;50.858;3.964;2022-10-16T07:01:37;16.60;63.40
18177;DHT22;9213;50.858;3.964;2022-10-16T07:04:03;16.60;63.40
18177;DHT22;9213;50.858;3.964;2022-10-16T07:06:34;16.60;63.50
18177;DHT22;9213;50.858;3.964;2022-10-16T07:09:05;16.70;63.80
18177;DHT22;9213;50.858;3.964;2022-10-16T07:11:33;16.70;63.80
18177;DHT22;9213;50.858;3.964;2022-10-16T07:14:00;16.70;63.90
18177;DHT22;9213;50.858;3.964;2022-10-16T07:16:28;16.80;63.90
18177;DHT22;9213;50.858;3.964;2022-10-16T07:18:56;16.90;63.90
18177;DHT22;9213;50.858;3.964;2022-10-16T07:21:25;17.00;63.60
18177;DHT22;9213;50.858;3.964;2022-10-16T07:23:54;17.10;63.40
18177;DHT22;9213;50.858;3.964;2022-10-16T07:26:21;17.30;63.10
18177;DHT22;9213;50.858;3.964;2022-10-16T07:28:49;17.40;62.80
18177;DHT22;9213;50.858;3.964;2022-10-16T07:31:17;17.50;62.60
18177;DHT22;9213;50.858;3.964;2022-10-16T07:33:45;17.50;62.10
18177;DHT22;9213;50.858;3.964;2022-10-16T07:36:14;17.60;62.00
18177;DHT22;9213;50.858;3.964;2022-10-16T07:38:41;17.70;61.90
18177;DHT22;9213;50.858;3.964;2022-10-16T07:41:12;17.70;61.60
18177;DHT22;9213;50.858;3.964;2022-10-16T07:43:39;17.80;61.30
18177;DHT22;9213;50.858;3.964;2022-10-16T07:46:06;17.80;61.00
18177;DHT22;9213;50.858;3.964;2022-10-16T07:48:34;17.80;61.00
18177;DHT22;9213;50.858;3.964;2022-10-16T07:51:02;17.90;61.40
18177;DHT22;9213;50.858;3.964;2022-10-16T07:53:29;18.00;61.50
18177;DHT22;9213;50.858;3.964;2022-10-16T07:55:57;18.30;61.20
18177;DHT22;9213;50.858;3.964;2022-10-16T07:58:26;18.70;61.10
18177;DHT22;9213;50.858;3.964;2022-10-16T08:00:53;19.10;59.20
18177;DHT22;9213;50.858;3.964;2022-10-16T08:03:20;19.50;58.00
18177;DHT22;9213;50.858;3.964;2022-10-16T08:05:47;19.90;56.80
18177;DHT22;9213;50.858;3.964;2022-10-16T08:08:15;20.20;55.40
18177;DHT22;9213;50.858;3.964;2022-10-16T08:10:42;20.60;54.40
18177;DHT22;9213;50.858;3.964;2022-10-16T08:13:09;20.80;53.70
18177;DHT22;9213;50.858;3.964;2022-10-16T08:15:37;21.10;53.20
18177;DHT22;9213;50.858;3.964;2022-10-16T08:18:05;21.30;52.30
18177;DHT22;9213;50.858;3.964;2022-10-16T08:20:33;21.50;51.80
18177;DHT22;9213;50.858;3.964;2022-10-16T08:23:00;21.60;51.50
18177;DHT22;9213;50.858;3.964;2022-10-16T08:25:27;21.70;51.10
18177;DHT22;9213;50.858;3.964;2022-10-16T08:27:54;21.90;50.70
18177;DHT22;9213;50.858;3.964;2022-10-16T08:30:22;22.10;50.30
18177;DHT22;9213;50.858;3.964;2022-10-16T08:32:51;22.40;49.60
18177;DHT22;9213;50.858;3.964;2022-10-16T08:35:18;22.50;49.20
18177;DHT22;9213;50.858;3.964;2022-10-16T08:37:45;22.60;48.80
18177;DHT22;9213;50.858;3.964;2022-10-16T08:40:18;22.70;49.00
18177;DHT22;9213;50.858;3.964;2022-10-16T08:42:59;22.90;48.40
18177;DHT22;9213;50.858;3.964;2022-10-16T08:45:38;23.00;47.90
18177;DHT22;9213;50.858;3.964;2022-10-16T08:48:18;23.20;47.90
18177;DHT22;9213;50.858;3.964;2022-10-16T08:50:47;23.30;47.50
18177;DHT22;9213;50.858;3.964;2022-10-16T08:53:19;23.50;46.70
18177;DHT22;9213;50.858;3.964;2022-10-16T08:55:50;23.70;46.10
18177;DHT22;9213;50.858;3.964;2022-10-16T08:58:19;23.90;45.60
18177;DHT22;9213;50.858;3.964;2022-10-16T09:00:50;24.00;44.70
18177;DHT22;9213;50.858;3.964;2022-10-16T09:03:27;24.20;44.60
18177;DHT22;9213;50.858;3.964;2022-10-16T09:06:17;24.40;44.20
18177;DHT22;9213;50.858;3.964;2022-10-16T09:08:55;24.50;44.40
18177;DHT22;9213;50.858;3.964;2022-10-16T09:11:37;24.70;43.70
18177;DHT22;9213;50.858;3.964;2022-10-16T09:14:19;25.00;43.00
18177;DHT22;9213;50.858;3.964;2022-10-16T09:16:55;25.10;42.20
18177;DHT22;9213;50.858;3.964;2022-10-16T09:19:31;25.20;41.50
18177;DHT22;9213;50.858;3.964;2022-10-16T09:22:04;25.30;41.80
18177;DHT22;9213;50.858;3.964;2022-10-16T09:24:36;25.40;41.30
18177;DHT22;9213;50.858;3.964;2022-10-16T09:27:03;25.50;41.10
18177;DHT22;9213;50.858;3.964;2022-10-16T09:29:30;25.70;39.80
18177;DHT22;9213;50.858;3.964;2022-10-16T09:32:08;25.80;39.60
18177;DHT22;9213;50.858;3.964;2022-10-16T09:34:42;25.80;39.60
18177;DHT22;9213;50.858;3.964;2022-10-16T09:37:13;25.90;39.70
18177;DHT22;9213;50.858;3.964;2022-10-16T09:39:44;26.00;40.20
18177;DHT22;9213;50.858;3.964;2022-10-16T09:42:14;26.10;39.60
18177;DHT22;9213;50.858;3.964;2022-10-16T09:44:42;26.30;39.10
18177;DHT22;9213;50.858;3.964;2022-10-16T09:47:15;26.40;38.30
18177;DHT22;9213;50.858;3.964;2022-10-16T09:49:52;26.50;38.60
18177;DHT22;9213;50.858;3.964;2022-10-16T09:52:19;26.60;38.10
18177;DHT22;9213;50.858;3.964;2022-10-16T09:54:51;26.40;38.00
18177;DHT22;9213;50.858;3.964;2022-10-16T09:57:19;26.20;38.00
18177;DHT22;9213;50.858;3.964;2022-10-16T09:59:47;25.90;38.30
18177;DHT22;9213;50.858;3.964;2022-10-16T10:02:15;25.60;39.10
18177;DHT22;9213;50.858;3.964;2022-10-16T10:04:49;25.30;39.80
18177;DHT22;9213;50.858;3.964;2022-10-16T10:07:23;25.10;40.50
18177;DHT22;9213;50.858;3.964;2022-10-16T10:09:51;25.00;41.80
18177;DHT22;9213;50.858;3.964;2022-10-16T10:12:21;24.90;41.50
18177;DHT22;9213;50.858;3.964;2022-10-16T10:14:49;25.00;41.10
18177;DHT22;9213;50.858;3.964;2022-10-16T10:17:18;25.00;41.40
18177;DHT22;9213;50.858;3.964;2022-10-16T10:19:48;25.10;41.00
18177;DHT22;9213;50.858;3.964;2022-10-16T10:22:26;25.20;40.90
18177;DHT22;9213;50.858;3.964;2022-10-16T10:25:15;25.30;41.00
18177;DHT22;9213;50.858;3.964;2022-10-16T10:27:53;25.50;40.10
18177;DHT22;9213;50.858;3.964;2022-10-16T10:30:29;25.80;39.30
18177;DHT22;9213;50.858;3.964;2022-10-16T10:33:19;26.00;39.60
18177;DHT22;9213;50.858;3.964;2022-10-16T10:35:56;26.50;39.20
18177;DHT22;9213;50.858;3.964;2022-10-16T10:38:34;26.80;38.40
18177;DHT22;9213;50.858;3.964;2022-10-16T10:41:17;27.10;37.50
18177;DHT22;9213;50.858;3.964;2022-10-16T10:43:56;27.30;37.20
18177;DHT22;9213;50.858;3.964;2022-10-16T10:46:33;27.50;36.00
18177;DHT22;9213;50.858;3.964;2022-10-16T10:49:16;27.60;36.10
18177;DHT22;9213;50.858;3.964;2022-10-16T10:51:54;27.80;36.20
18177;DHT22;9213;50.858;3.964;2022-10-16T10:54:28;27.80;35.40
18177;DHT22;9213;50.858;3.964;2022-10-16T10:57:02;27.90;35.10
18177;DHT22;9213;50.858;3.964;2022-10-16T10:59:50;28.00;35.60
18177;DHT22;9213;50.858;3.964;2022-10-16T11:02:24;28.20;35.20
18177;DHT22;9213;50.858;3.964;2022-10-16T11:05:18;28.30;34.50
18177;DHT22;9213;50.858;3.964;2022-10-16T11:07:49;28.50;34.90
18177;DHT22;9213;50.858;3.964;2022-10-16T11:10:21;28.60;34.00
18177;DHT22;9213;50.858;3.964;2022-10-16T11:12:50;28.70;34.00
18177;DHT22;9213;50.858;3.964;2022-10-16T11:15:23;28.80;33.70
18177;DHT22;9213;50.858;3.964;2022-10-16T11:17:53;28.90;32.00
18177;DHT22;9213;50.858;3.964;2022-10-16T11:20:24;28.90;32.30
18177;DHT22;9213;50.858;3.964;2022-10-16T11:22:54;29.00;33.20
18177;DHT22;9213;50.858;3.964;2022-10-16T11:25:26;29.10;32.80
18177;DHT22;9213;50.858;3.964;2022-10-16T11:27:58;29.10;33.30
18177;DHT22;9213;50.858;3.964;2022-10-16T11:30:28;29.10;32.90
18177;DHT22;9213;50.858;3.964;2022-10-16T11:33:21;29.10;33.30
18177;DHT22;9213;50.858;3.964;2022-10-16T11:35:54;29.30;33.40
18177;DHT22;9213;50.858;3.964;2022-10-16T11:38:29;29.30;33.60
18177;DHT22;9213;50.858;3.964;2022-10-16T11:41:03;29.50;31.90
18177;DHT22;9213;50.858;3.964;2022-10-16T11:43:35;29.60;31.60
18177;DHT22;9213;50.858;3.964;2022-10-16T11:46:08;29.60;31.20
18177;DHT22;9213;50.858;3.964;2022-10-16T11:48:41;29.70;31.30
18177;DHT22;9213;50.858;3.964;2022-10-16T11:51:18;29.80;31.00
18177;DHT22;9213;50.858;3.964;2022-10-16T11:53:52;29.90;31.50
18177;DHT22;9213;50.858;3.964;2022-10-16T11:56:21;29.90;30.80
18177;DHT22;9213;50.858;3.964;2022-10-16T11:58:54;29.80;31.20
18177;DHT22;9213;50.858;3.964;2022-10-16T12:01:28;29.90;31.20
18177;DHT22;9213;50.858;3.964;2022-10-16T12:04:05;30.00;31.20
18177;DHT22;9213;50.858;3.964;2022-10-16T12:06:36;29.90;31.20
18177;DHT22;9213;50.858;3.964;2022-10-16T12:09:04;29.80;31.20
18177;DHT22;9213;50.858;3.964;2022-10-16T12:11:35;29.70;30.90
18177;DHT22;9213;50.858;3.964;2022-10-16T12:14:33;29.60;31.20
18177;DHT22;9213;50.858;3.964;2022-10-16T12:17:02;29.70;32.10
18177;DHT22;9213;50.858;3.964;2022-10-16T12:19:32;29.70;31.20
18177;DHT22;9213;50.858;3.964;2022-10-16T12:22:00;29.70;31.50
18177;DHT22;9213;50.858;3.964;2022-10-16T12:24:33;29.70;31.50
18177;DHT22;9213;50.858;3.964;2022-10-16T12:27:03;29.80;31.00
18177;DHT22;9213;50.858;3.964;2022-10-16T12:29:36;29.80;31.00
18177;DHT22;9213;50.858;3.964;2022-10-16T12:32:05;30.00;31.80
18177;DHT22;9213;50.858;3.964;2022-10-16T12:34:38;30.00;31.00
18177;DHT22;9213;50.858;3.964;2022-10-16T12:37:13;29.90;30.60
18177;DHT22;9213;50.858;3.964;2022-10-16T12:39:41;29.80;30.80
18177;DHT22;9213;50.858;3.964;2022-10-16T12:42:23;29.50;30.90
18177;DHT22;9213;50.858;3.964;2022-10-16T12:44:50;29.40;32.10
18177;DHT22;9213;50.858;3.964;2022-10-16T12:47:22;29.30;32.00
18177;DHT22;9213;50.858;3.964;2022-10-16T12:49:51;29.30;32.40
18177;DHT22;9213;50.858;3.964;2022-10-16T12:52:27;29.30;32.20
18177;DHT22;9213;50.858;3.964;2022-10-16T12:54:57;29.50;32.40
18177;DHT22;9213;50.858;3.964;2022-10-16T12:57:45;29.50;32.30
18177;DHT22;9213;50.858;3.964;2022-10-16T13:00:22;29.80;32.20
18177;DHT22;9213;50.858;3.964;2022-10-16T13:06:17;30.10;32.20
18177;DHT22;9213;50.858;3.964;2022-10-16T13:09:04;30.10;31.40
18177;DHT22;9213;50.858;3.964;2022-10-16T13:11:47;30.00;31.60
18177;DHT22;9213;50.858;3.964;2022-10-16T13:14:39;30.00;31.30
18177;DHT22;9213;50.858;3.964;2022-10-16T13:17:13;29.90;31.20
18177;DHT22;9213;50.858;3.964;2022-10-16T13:19:51;29.80;30.60
18177;DHT22;9213;50.858;3.964;2022-10-16T13:22:24;29.70;30.30
18177;DHT22;9213;50.858;3.964;2022-10-16T13:25:04;29.60;30.40
18177;DHT22;9213;50.858;3.964;2022-10-16T13:27:41;29.60;30.40
18177;DHT22;9213;50.858;3.964;2022-10-16T13:30:16;29.50;30.20
18177;DHT22;9213;50.858;3.964;2022-10-16T13:32:45;29.50;30.20
18177;DHT22;9213;50.858;3.964;2022-10-16T13:35:22;29.40;30.70
18177;DHT22;9213;50.858;3.964;2022-10-16T13:37:49;29.50;30.70
18177;DHT22;9213;50.858;3.964;2022-10-16T13:40:21;29.30;30.70
18177;DHT22;9213;50.858;3.964;2022-10-16T13:42:48;29.30;30.70
18177;DHT22;9213;50.858;3.964;2022-10-16T13:45:21;29.20;30.90
18177;DHT22;9213;50.858;3.964;2022-10-16T13:47:48;29.20;31.20
18177;DHT22;9213;50.858;3.964;2022-10-16T13:50:16;29.10;31.50
18177;DHT22;9213;50.858;3.964;2022-10-16T13:52:44;29.00;31.90
18177;DHT22;9213;50.858;3.964;2022-10-16T13:55:12;28.90;31.40
18177;DHT22;9213;50.858;3.964;2022-10-16T13:57:39;28.90;31.80
18177;DHT22;9213;50.858;3.964;2022-10-16T14:00:20;28.90;31.50
18177;DHT22;9213;50.858;3.964;2022-10-16T14:02:52;28.90;31.80
18177;DHT22;9213;50.858;3.964;2022-10-16T14:05:20;28.80;31.90
18177;DHT22;9213;50.858;3.964;2022-10-16T14:07:49;28.70;32.10
18177;DHT22;9213;50.858;3.964;2022-10-16T14:10:22;28.70;32.30
18177;DHT22;9213;50.858;3.964;2022-10-16T14:12:55;28.60;32.20
18177;DHT22;9213;50.858;3.964;2022-10-16T14:15:24;28.60;32.30
18177;DHT22;9213;50.858;3.964;2022-10-16T14:17:52;28.60;31.90
18177;DHT22;9213;50.858;3.964;2022-10-16T14:20:21;28.50;32.40
18177;DHT22;9213;50.858;3.964;2022-10-16T14:22:59;28.50;32.60
18177;DHT22;9213;50.858;3.964;2022-10-16T14:25:29;28.40;32.60
18177;DHT22;9213;50.858;3.964;2022-10-16T14:28:02;28.30;33.60
18177;DHT22;9213;50.858;3.964;2022-10-16T14:30:32;28.10;33.80
18177;DHT22;9213;50.858;3.964;2022-10-16T14:33:01;27.90;33.90
18177;DHT22;9213;50.858;3.964;2022-10-16T14:35:31;27.80;34.50
18177;DHT22;9213;50.858;3.964;2022-10-16T14:37:59;27.70;34.30
18177;DHT22;9213;50.858;3.964;2022-10-16T14:40:28;27.60;34.20
18177;DHT22;9213;50.858;3.964;2022-10-16T14:42:56;27.50;35.20
18177;DHT22;9213;50.858;3.964;2022-10-16T14:45:26;27.50;35.80
18177;DHT22;9213;50.858;3.964;2022-10-16T14:47:56;27.30;35.20
18177;DHT22;9213;50.858;3.964;2022-10-16T14:50:23;27.30;35.50
18177;DHT22;9213;50.858;3.964;2022-10-16T14:52:51;27.30;35.50
18177;DHT22;9213;50.858;3.964;2022-10-16T14:55:18;27.20;35.50
18177;DHT22;9213;50.858;3.964;2022-10-16T14:57:45;27.20;35.90
18177;DHT22;9213;50.858;3.964;2022-10-16T15:00:17;27.20;35.70
18177;DHT22;9213;50.858;3.964;2022-10-16T15:02:44;27.20;36.20
18177;DHT22;9213;50.858;3.964;2022-10-16T15:05:15;27.10;35.70
18177;DHT22;9213;50.858;3.964;2022-10-16T15:07:42;27.10;36.80
18177;DHT22;9213;50.858;3.964;2022-10-16T15:10:10;27.00;36.90
18177;DHT22;9213;50.858;3.964;2022-10-16T15:12:37;27.00;37.00
18177;DHT22;9213;50.858;3.964;2022-10-16T15:15:21;27.00;37.30
18177;DHT22;9213;50.858;3.964;2022-10-16T15:17:50;27.00;37.10
18177;DHT22;9213;50.858;3.964;2022-10-16T15:20:19;26.90;37.00
18177;DHT22;9213;50.858;3.964;2022-10-16T15:22:46;26.80;36.90
18177;DHT22;9213;50.858;3.964;2022-10-16T15:25:29;26.70;37.60
18177;DHT22;9213;50.858;3.964;2022-10-16T15:27:56;26.70;37.20
18177;DHT22;9213;50.858;3.964;2022-10-16T15:30:23;26.60;37.20
18177;DHT22;9213;50.858;3.964;2022-10-16T15:32:50;26.50;37.90
18177;DHT22;9213;50.858;3.964;2022-10-16T15:35:18;26.40;38.00
18177;DHT22;9213;50.858;3.964;2022-10-16T15:37:47;26.40;38.10
18177;DHT22;9213;50.858;3.964;2022-10-16T15:40:15;26.30;37.90
18177;DHT22;9213;50.858;3.964;2022-10-16T15:42:42;26.20;38.40
18177;DHT22;9213;50.858;3.964;2022-10-16T15:45:09;26.10;38.40
18177;DHT22;9213;50.858;3.964;2022-10-16T15:47:37;26.10;38.70
18177;DHT22;9213;50.858;3.964;2022-10-16T15:50:04;26.00;38.80
18177;DHT22;9213;50.858;3.964;2022-10-16T15:52:33;25.90;39.30
18177;DHT22;9213;50.858;3.964;2022-10-16T15:55:00;25.90;39.50
18177;DHT22;9213;50.858;3.964;2022-10-16T15:57:28;25.80;39.90
18177;DHT22;9213;50.858;3.964;2022-10-16T15:59:55;25.70;39.20
18177;DHT22;9213;50.858;3.964;2022-10-16T16:02:21;25.60;39.00
18177;DHT22;9213;50.858;3.964;2022-10-16T16:04:48;25.60;39.10
18177;DHT22;9213;50.858;3.964;2022-10-16T16:07:15;25.50;39.10